Time;durP1;ratioP1;P1;durP2;ratioP2;P2;SDS_P1;SDS_P2;PMS_P1;PMS_P2;Temp;Humidity;BMP_temperature;BMP_pressure;BME280_temperature;BME280_humidity;BME280_pressure;Samples;Min_cycle;Max_cycle;Signal;HPM_P1;HPM_P2
2022/11/28 00:01:46;;;;;;;12.70;9.18;;;;;;;5.35;100.00;100817.72;6121945;23;20025;-86
2022/11/28 00:04:12;;;;;;;12.32;10.38;;;;;;;5.39;100.00;100825.53;6122890;23;20006;-83
2022/11/28 00:06:40;;;;;;;11.15;9.57;;;;;;;5.39;100.00;100817.63;6126219;23;20009;-83
2022/11/28 00:09:05;;;;;;;9.90;8.93;;;;;;;5.37;100.00;100805.38;6136357;23;20018;-83
2022/11/28 00:11:31;;;;;;;11.52;9.15;;;;;;;5.41;100.00;100802.59;6141199;23;20017;-84
2022/11/28 00:13:56;;;;;;;9.85;8.77;;;;;;;5.48;100.00;100812.06;6138586;23;20037;-84
2022/11/28 00:16:22;;;;;;;11.00;9.48;;;;;;;5.50;100.00;100812.00;6131890;23;20360;-84
2022/11/28 00:18:53;;;;;;;10.02;8.77;;;;;;;5.54;100.00;100805.72;6121404;23;20077;-85
2022/11/28 00:21:19;;;;;;;10.73;8.90;;;;;;;5.54;100.00;100791.66;6122307;23;20002;-85
2022/11/28 00:23:45;;;;;;;9.75;8.73;;;;;;;5.60;100.00;100799.38;6089106;23;20034;-84
2022/11/28 00:26:18;;;;;;;9.43;8.43;;;;;;;5.62;100.00;100808.13;6092361;23;20006;-85
2022/11/28 00:28:44;;;;;;;10.52;8.55;;;;;;;5.63;100.00;100794.88;6093226;23;20026;-84
2022/11/28 00:31:14;;;;;;;11.85;9.05;;;;;;;5.64;100.00;100804.53;6091117;23;20010;-84
2022/11/28 00:33:39;;;;;;;9.82;8.82;;;;;;;5.63;100.00;100786.09;6086401;23;20463;-84
2022/11/28 00:36:05;;;;;;;11.35;9.35;;;;;;;5.67;100.00;100790.34;6091334;23;20006;-83
2022/11/28 00:38:31;;;;;;;9.50;8.50;;;;;;;5.68;100.00;100794.72;6090104;23;19998;-85
2022/11/28 00:41:05;;;;;;;10.75;9.20;;;;;;;5.67;100.00;100790.34;6089722;23;20030;-84
2022/11/28 00:43:31;;;;;;;9.90;8.90;;;;;;;5.61;100.00;100782.63;6089755;23;20010;-83
2022/11/28 00:45:56;;;;;;;11.90;9.70;;;;;;;5.67;100.00;100785.06;6090217;23;20349;-84
2022/11/28 00:48:22;;;;;;;11.43;9.00;;;;;;;5.68;100.00;100789.44;6088990;23;20093;-83
2022/11/28 00:50:48;;;;;;;9.68;8.70;;;;;;;5.66;100.00;100783.34;6090444;23;20086;-83
2022/11/28 00:53:13;;;;;;;10.45;8.27;;;;;;;5.70;100.00;100784.97;6090589;23;20086;-84
2022/11/28 00:55:39;;;;;;;10.18;8.40;;;;;;;5.69;100.00;100788.53;6090710;23;20003;-84
2022/11/28 00:58:04;;;;;;;9.15;8.25;;;;;;;5.67;100.00;100782.44;6090538;23;20053;-84
2022/11/28 01:00:30;;;;;;;10.43;8.30;;;;;;;5.65;100.00;100782.50;6091479;23;20058;-84
2022/11/28 01:02:55;;;;;;;10.43;8.68;;;;;;;5.64;100.00;100777.25;6090822;23;20053;-83
2022/11/28 01:05:21;;;;;;;9.77;8.35;;;;;;;5.65;100.00;100779.84;6089113;23;20002;-82
2022/11/28 01:07:46;;;;;;;10.38;8.63;;;;;;;5.69;100.00;100783.25;6091028;23;20007;-83
2022/11/28 01:10:11;;;;;;;9.18;8.27;;;;;;;5.70;100.00;100793.75;6091554;23;20009;-84
2022/11/28 01:12:37;;;;;;;11.68;8.93;;;;;;;5.73;100.00;100780.47;6090450;23;20010;-82
2022/11/28 01:15:04;;;;;;;9.20;8.27;;;;;;;5.70;100.00;100771.78;6091068;23;20089;-83
2022/11/28 01:17:29;;;;;;;10.75;8.23;;;;;;;5.72;100.00;100775.22;6090453;23;20089;-84
2022/11/28 01:19:55;;;;;;;9.35;8.32;;;;;;;5.75;100.00;100781.28;6091353;23;20037;-83
2022/11/28 01:22:20;;;;;;;9.55;8.55;;;;;;;5.76;100.00;100784.78;6090539;23;20423;-85
2022/11/28 01:24:45;;;;;;;10.52;8.23;;;;;;;5.73;100.00;100776.97;6108907;23;20014;-83
2022/11/28 01:27:11;;;;;;;9.95;8.95;;;;;;;5.77;100.00;100778.59;6120116;23;20032;-83
2022/11/28 01:29:40;;;;;;;11.45;8.52;;;;;;;5.78;100.00;100777.69;6120716;23;20002;-83
2022/11/28 01:32:05;;;;;;;9.45;7.45;;;;;;;5.82;100.00;100778.44;6119749;23;20193;-83
2022/11/28 01:34:30;;;;;;;8.82;7.65;;;;;;;5.84;100.00;100781.91;6120527;23;20787;-84
2022/11/28 01:36:56;;;;;;;8.07;7.25;;;;;;;5.88;100.00;100778.25;6121399;23;20005;-84
2022/11/28 01:39:21;;;;;;;8.38;7.55;;;;;;;5.90;100.00;100768.50;6123180;23;20013;-85
2022/11/28 01:41:47;;;;;;;8.30;7.03;;;;;;;5.95;100.00;100777.16;6120763;23;20388;-84
2022/11/28 01:44:12;;;;;;;9.20;6.85;;;;;;;5.97;100.00;100770.91;6122535;23;20006;-84
2022/11/28 01:46:37;;;;;;;6.93;6.00;;;;;;;5.96;100.00;100765.69;6096138;23;20813;-83
2022/11/28 01:49:21;;;;;;;8.88;6.40;;;;;;;6.01;100.00;100773.44;6122487;23;20427;-83
2022/11/28 01:51:56;;;;;;;8.07;6.35;;;;;;;5.96;100.00;100765.69;6121288;23;20006;-84
2022/11/28 01:54:24;;;;;;;7.53;6.82;;;;;;;5.92;100.00;100771.97;6122538;23;20089;-84
2022/11/28 01:56:59;;;;;;;8.30;6.45;;;;;;;5.99;100.00;100784.94;6095417;23;20016;-83
2022/11/28 01:59:27;;;;;;;7.00;6.30;;;;;;;5.96;100.00;100771.81;6120163;23;20010;-83
2022/11/28 02:01:53;;;;;;;9.18;6.13;;;;;;;5.97;100.00;100768.25;6119123;23;20253;-84
2022/11/28 02:04:18;;;;;;;7.97;6.40;;;;;;;5.95;100.00;100777.16;6119523;23;20435;-83
2022/11/28 02:06:44;;;;;;;8.90;6.88;;;;;;;5.88;100.00;100760.59;6118643;23;20579;-82
2022/11/28 02:09:15;;;;;;;7.07;6.30;;;;;;;5.88;100.00;100757.97;6095288;23;20072;-84
2022/11/28 02:12:00;;;;;;;9.80;7.22;;;;;;;5.88;100.00;100768.53;6093787;23;20441;-83
2022/11/28 02:14:44;;;;;;;6.75;6.05;;;;;;;5.91;100.00;100762.31;6118315;23;20009;-84
2022/11/28 02:17:52;;;;;;;7.35;6.25;;;;;;;5.86;100.00;100751.88;6120779;23;20001;-83
2022/11/28 02:21:09;;;;;;;8.05;6.18;;;;;;;5.87;100.00;100758.03;6119020;23;20005;-84
2022/11/28 02:24:07;;;;;;;7.55;5.80;;;;;;;5.85;100.00;100744.00;6000745;23;20106;-83
2022/11/28 02:27:12;;;;;;;7.45;6.30;;;;;;;5.81;100.00;100748.53;5999848;23;20047;-82
2022/11/28 02:29:54;;;;;;;7.65;5.88;;;;;;;5.78;100.00;100751.28;6000364;23;20783;-83
2022/11/28 02:32:34;;;;;;;6.88;6.18;;;;;;;5.79;100.00;100754.78;6001658;23;20018;-82
2022/11/28 02:35:18;;;;;;;7.70;6.25;;;;;;;5.78;100.00;100753.91;5999840;23;20019;-83
2022/11/28 02:38:19;;;;;;;6.95;6.25;;;;;;;5.76;100.00;100755.72;6001665;23;20044;-82
2022/11/28 02:40:57;;;;;;;8.57;6.68;;;;;;;5.74;100.00;100747.88;5999662;23;20046;-83
2022/11/28 02:43:32;;;;;;;7.53;6.60;;;;;;;5.76;100.00;100763.66;6001880;23;20054;-82
2022/11/28 02:46:05;;;;;;;8.18;6.57;;;;;;;5.75;100.00;100757.50;6002668;23;20008;-84
2022/11/28 02:48:45;;;;;;;8.45;6.88;;;;;;;5.75;100.00;100762.78;6003031;23;20449;-83
2022/11/28 02:51:36;;;;;;;8.73;6.45;;;;;;;5.75;100.00;100754.00;5978875;23;20012;-83
2022/11/28 02:54:04;;;;;;;7.10;6.40;;;;;;;5.75;100.00;100760.16;6002272;23;20035;-83
2022/11/28 02:56:29;;;;;;;9.60;6.88;;;;;;;5.77;100.00;100746.03;6001452;23;20090;-83
2022/11/28 02:58:54;;;;;;;7.85;6.60;;;;;;;5.72;100.00;100746.16;6034272;23;20106;-83
2022/11/28 03:01:28;;;;;;;8.07;6.75;;;;;;;5.74;100.00;100750.50;6089077;23;20017;-81
2022/11/28 03:04:24;;;;;;;9.25;7.13;;;;;;;5.75;100.00;100756.66;6090082;23;20013;-83
2022/11/28 03:07:04;;;;;;;10.32;7.28;;;;;;;5.75;100.00;100746.09;6090532;23;20066;-83
2022/11/28 03:09:46;;;;;;;9.40;7.38;;;;;;;5.73;100.00;100745.28;6091570;23;20082;-83
2022/11/28 03:12:21;;;;;;;11.25;7.88;;;;;;;5.75;100.00;100743.44;6091423;23;20077;-83
2022/11/28 03:14:59;;;;;;;8.63;7.65;;;;;;;5.74;100.00;100736.44;6089314;23;20006;-83
2022/11/28 03:17:36;;;;;;;9.32;7.38;;;;;;;5.74;100.00;100737.31;6092315;23;20085;-84
2022/11/28 03:20:07;;;;;;;8.25;7.45;;;;;;;5.74;100.00;100739.94;6092598;23;20006;-83
2022/11/28 03:22:54;;;;;;;9.32;7.55;;;;;;;5.73;100.00;100740.84;6091868;23;20451;-82
2022/11/28 03:25:52;;;;;;;11.18;7.78;;;;;;;5.72;100.00;100743.53;6090223;23;20014;-83
2022/11/28 03:28:37;;;;;;;10.73;8.15;;;;;;;5.64;100.00;100727.97;6046020;23;20014;-83
2022/11/28 03:31:09;;;;;;;10.95;7.57;;;;;;;5.72;100.00;100740.88;6105463;23;20003;-83
2022/11/28 03:33:37;;;;;;;9.82;7.95;;;;;;;5.72;100.00;100743.53;6095192;23;20010;-83
2022/11/28 03:36:09;;;;;;;10.35;7.53;;;;;;;5.72;100.00;100738.25;6101197;23;20065;-83
2022/11/28 03:38:39;;;;;;;9.63;8.43;;;;;;;5.64;100.00;100727.06;6099725;23;20003;-83
2022/11/28 03:41:15;;;;;;;13.60;8.30;;;;;;;5.68;100.00;100736.63;6102276;23;20006;-83
2022/11/28 03:43:48;;;;;;;10.35;8.27;;;;;;;5.69;100.00;100733.09;6100151;23;20020;-84
2022/11/28 03:46:19;;;;;;;9.23;8.07;;;;;;;5.69;100.00;100736.59;6096102;23;20002;-84
2022/11/28 03:48:49;;;;;;;9.55;8.32;;;;;;;5.69;100.00;100727.81;6092956;23;20033;-84
2022/11/28 03:51:19;;;;;;;9.95;8.48;;;;;;;5.68;100.00;100720.78;6091525;23;20005;-84
2022/11/28 03:54:03;;;;;;;10.90;8.13;;;;;;;5.68;100.00;100737.47;6089981;23;20421;-83
2022/11/28 03:56:53;;;;;;;11.35;8.63;;;;;;;5.68;100.00;100737.47;6093610;23;20009;-84
2022/11/28 03:59:25;;;;;;;11.48;8.90;;;;;;;5.64;100.00;100729.72;6093072;23;20005;-84
2022/11/28 04:01:53;;;;;;;14.60;9.57;;;;;;;5.68;100.00;100739.25;6090357;23;20041;-84
2022/11/28 04:04:26;;;;;;;13.13;9.43;;;;;;;5.69;100.00;100735.72;6091503;23;20021;-84
2022/11/28 04:07:25;;;;;;;11.50;8.88;;;;;;;5.69;100.00;100738.38;6090796;23;20476;-84
2022/11/28 04:10:00;;;;;;;12.02;9.73;;;;;;;5.69;100.00;100738.38;6090154;23;20011;-84
2022/11/28 04:12:36;;;;;;;13.45;10.43;;;;;;;5.69;100.00;100741.00;6091128;23;20086;-83
2022/11/28 04:15:23;;;;;;;14.07;10.93;;;;;;;5.64;100.00;100733.25;6090808;23;20464;-84
2022/11/28 04:18:09;;;;;;;13.73;11.30;;;;;;;5.68;100.00;100731.34;6088855;23;20447;-84
2022/11/28 04:20:42;;;;;;;12.15;9.57;;;;;;;5.64;100.00;100724.44;6087610;23;20479;-85
2022/11/28 04:23:12;;;;;;;12.80;9.85;;;;;;;5.62;100.00;100727.13;6087826;23;20032;-83
2022/11/28 04:25:43;;;;;;;15.05;11.40;;;;;;;5.62;100.00;100721.84;6117410;23;20050;-84
2022/11/28 04:28:15;;;;;;;13.20;11.05;;;;;;;5.69;100.00;100739.22;6092166;23;20008;-83
2022/11/28 04:30:43;;;;;;;14.07;10.80;;;;;;;5.69;100.00;100744.50;6116117;23;20076;-83
2022/11/28 04:33:12;;;;;;;16.02;11.30;;;;;;;5.70;100.00;100740.94;6118950;23;20452;-84
2022/11/28 04:35:43;;;;;;;14.10;11.02;;;;;;;5.70;100.00;100742.72;6117658;23;20017;-82
2022/11/28 04:38:10;;;;;;;14.38;10.98;;;;;;;5.67;100.00;100734.91;6118604;23;20347;-84
2022/11/28 04:40:43;;;;;;;16.35;11.75;;;;;;;5.64;100.00;100724.44;6117041;23;20413;-82
2022/11/28 04:43:16;;;;;;;14.32;11.18;;;;;;;5.69;100.00;100728.66;6118952;23;20010;-83
2022/11/28 04:45:57;;;;;;;13.47;10.80;;;;;;;5.69;100.00;100736.59;6117811;23;20012;-84
2022/11/28 04:48:22;;;;;;;13.63;11.35;;;;;;;5.71;100.00;100747.09;6118193;23;20068;-84
2022/11/28 04:50:56;;;;;;;14.40;11.05;;;;;;;5.72;100.00;100738.25;6117211;23;20096;-84
2022/11/28 04:53:35;;;;;;;15.32;11.23;;;;;;;5.73;100.00;100743.50;6118423;23;20034;-83
2022/11/28 04:56:10;;;;;;;17.17;12.02;;;;;;;5.73;100.00;100745.28;6119105;23;20005;-83
2022/11/28 04:58:41;;;;;;;12.77;10.10;;;;;;;5.65;100.00;100732.31;6120253;23;20412;-83
2022/11/28 05:01:13;;;;;;;13.95;10.30;;;;;;;5.70;100.00;100735.66;6118893;23;20013;-83
2022/11/28 05:03:39;;;;;;;11.68;9.40;;;;;;;5.72;100.00;100743.53;6120623;23;20088;-84
2022/11/28 05:06:05;;;;;;;13.27;10.40;;;;;;;5.71;100.00;100744.44;6121490;23;20037;-84
2022/11/28 05:08:30;;;;;;;12.30;10.35;;;;;;;5.72;100.00;100743.53;6120780;23;20502;-84
2022/11/28 05:10:56;;;;;;;13.35;10.30;;;;;;;5.72;100.00;100743.53;6118707;23;20045;-82
2022/11/28 05:13:21;;;;;;;12.93;10.32;;;;;;;5.72;100.00;100743.53;6094132;23;20521;-84
2022/11/28 05:15:46;;;;;;;14.35;10.73;;;;;;;5.69;100.00;100741.00;6119846;23;20316;-82
2022/11/28 05:18:12;;;;;;;14.23;11.13;;;;;;;5.68;100.00;100733.97;6120992;23;20006;-83
2022/11/28 05:20:38;;;;;;;14.40;11.50;;;;;;;5.68;100.00;100739.25;6118861;23;20009;-84
2022/11/28 05:23:03;;;;;;;15.40;11.80;;;;;;;5.72;100.00;100747.03;6095421;23;20006;-83
2022/11/28 05:25:28;;;;;;;13.63;11.02;;;;;;;5.72;100.00;100744.38;6119871;23;20024;-82
2022/11/28 05:27:54;;;;;;;14.93;12.07;;;;;;;5.71;100.00;100749.72;6093532;23;20317;-83
2022/11/28 05:30:19;;;;;;;14.95;12.45;;;;;;;5.72;100.00;100743.53;6119125;23;20041;-84
2022/11/28 05:32:45;;;;;;;15.48;12.00;;;;;;;5.72;100.00;100748.81;6120828;23;20034;-83
2022/11/28 05:35:10;;;;;;;14.05;11.23;;;;;;;5.74;100.00;100749.66;6119331;23;20081;-86
2022/11/28 05:37:36;;;;;;;16.23;11.48;;;;;;;5.72;100.00;100749.66;6119393;23;20056;-85
2022/11/28 05:40:02;;;;;;;15.77;12.02;;;;;;;5.72;100.00;100747.03;6117085;23;20010;-83
2022/11/28 05:42:31;;;;;;;15.25;12.02;;;;;;;5.74;100.00;100757.56;6091629;23;20002;-83
2022/11/28 05:44:56;;;;;;;14.23;10.73;;;;;;;5.66;100.00;100738.47;6117337;23;20017;-84
2022/11/28 05:47:22;;;;;;;13.48;10.93;;;;;;;5.67;100.00;100742.81;6118369;23;20002;-82
2022/11/28 05:49:48;;;;;;;12.95;10.63;;;;;;;5.69;100.00;100747.16;6117355;23;20487;-83
2022/11/28 05:52:13;;;;;;;12.80;11.38;;;;;;;5.73;100.00;100753.19;6120533;23;20024;-84
2022/11/28 05:54:38;;;;;;;14.07;11.30;;;;;;;5.70;100.00;100750.66;6121771;23;20060;-84
2022/11/28 05:57:06;;;;;;;15.50;11.77;;;;;;;5.72;100.00;100741.75;6123558;23;20005;-83
2022/11/28 05:59:31;;;;;;;15.38;12.20;;;;;;;5.70;100.00;100738.31;6121372;23;20006;-84
2022/11/28 06:01:57;;;;;;;16.38;12.00;;;;;;;5.74;100.00;100745.22;6121457;23;20024;-84
2022/11/28 06:04:22;;;;;;;15.13;12.43;;;;;;;5.73;100.00;100745.28;6120753;23;20006;-84
2022/11/28 06:06:49;;;;;;;17.10;12.55;;;;;;;5.74;100.00;100755.78;6095207;23;20010;-84
2022/11/28 06:09:14;;;;;;;16.15;13.70;;;;;;;5.69;100.00;100744.50;6121796;23;19998;-83
2022/11/28 06:11:40;;;;;;;17.13;12.85;;;;;;;5.66;100.00;100727.91;6117722;23;20021;-83
2022/11/28 06:14:05;;;;;;;16.77;13.55;;;;;;;5.69;100.00;100741.00;6119794;23;20020;-82
2022/11/28 06:16:31;;;;;;;15.18;11.90;;;;;;;5.69;100.00;100733.94;6093163;23;20002;-83
2022/11/28 06:18:58;;;;;;;15.07;12.15;;;;;;;5.75;100.00;100759.28;6120181;23;20424;-84
2022/11/28 06:21:25;;;;;;;16.58;13.02;;;;;;;5.74;100.00;100750.50;6120315;23;20008;-83
2022/11/28 06:23:51;;;;;;;16.17;12.35;;;;;;;5.75;100.00;100754.88;6120459;23;20018;-83
2022/11/28 06:26:20;;;;;;;13.60;11.73;;;;;;;5.70;100.00;100751.50;6120895;23;20097;-84
2022/11/28 06:28:46;;;;;;;12.30;11.00;;;;;;;5.67;100.00;100748.97;6121243;23;19998;-84
2022/11/28 06:31:14;;;;;;;13.43;11.98;;;;;;;5.68;100.00;100755.09;6118946;23;20088;-84
2022/11/28 06:33:40;;;;;;;13.45;11.00;;;;;;;5.75;100.00;100769.84;6120336;23;20001;-83
2022/11/28 06:36:07;;;;;;;16.23;12.50;;;;;;;5.75;100.00;100764.56;6120773;23;20133;-83
2022/11/28 06:38:33;;;;;;;15.57;12.70;;;;;;;5.69;100.00;100756.84;6120226;23;20435;-83
2022/11/28 06:41:01;;;;;;;16.75;13.23;;;;;;;5.75;100.00;100772.50;6093204;23;20126;-83
2022/11/28 06:43:27;;;;;;;14.95;13.23;;;;;;;5.75;100.00;100776.00;6094368;23;20009;-83
2022/11/28 06:45:52;;;;;;;17.23;13.57;;;;;;;5.76;100.00;100766.28;6120722;23;20017;-83
2022/11/28 06:48:18;;;;;;;19.17;13.90;;;;;;;5.75;100.00;100765.44;6123216;23;20010;-84
2022/11/28 06:50:44;;;;;;;17.80;14.90;;;;;;;5.67;100.00;100745.47;6121386;23;20351;-83
2022/11/28 06:53:09;;;;;;;17.98;14.25;;;;;;;5.73;100.00;100767.28;6120262;23;20344;-84
2022/11/28 06:55:35;;;;;;;16.98;14.02;;;;;;;5.71;100.00;100760.28;6120101;23;20346;-84
2022/11/28 06:58:00;;;;;;;18.67;15.02;;;;;;;5.77;100.00;100765.41;6119395;23;20002;-83
2022/11/28 07:00:26;;;;;;;19.00;15.32;;;;;;;5.75;100.00;100764.56;6118175;23;20358;-84
2022/11/28 07:02:52;;;;;;;19.15;15.65;;;;;;;5.79;100.00;100767.97;6120147;23;20024;-83
2022/11/28 07:05:18;;;;;;;21.67;16.55;;;;;;;5.78;100.00;100775.03;6094698;23;20021;-83
2022/11/28 07:07:44;;;;;;;20.60;16.23;;;;;;;5.79;100.00;100778.53;6120723;23;20038;-83
2022/11/28 07:10:10;;;;;;;17.85;14.90;;;;;;;5.79;100.00;100779.41;6120704;23;20029;-84
2022/11/28 07:12:35;;;;;;;19.58;14.82;;;;;;;5.73;100.00;100766.41;6121114;23;20010;-84
2022/11/28 07:15:00;;;;;;;18.80;14.75;;;;;;;5.80;100.00;100774.97;6093901;23;20016;-83
2022/11/28 07:17:26;;;;;;;17.17;14.00;;;;;;;5.79;100.00;100774.13;6118746;23;20005;-84
2022/11/28 07:19:51;;;;;;;17.73;14.73;;;;;;;5.79;100.00;100779.41;6091639;23;20077;-84
2022/11/28 07:22:16;;;;;;;17.63;14.70;;;;;;;5.77;100.00;100772.44;6091074;23;20010;-84
2022/11/28 07:24:41;;;;;;;20.40;15.75;;;;;;;5.79;100.00;100782.03;6086237;23;20060;-83
2022/11/28 07:27:07;;;;;;;21.27;16.40;;;;;;;5.77;100.00;100781.25;6090812;23;20010;-83
2022/11/28 07:29:35;;;;;;;20.65;16.75;;;;;;;5.81;100.00;100789.91;6089498;23;20175;-84
2022/11/28 07:32:05;;;;;;;18.48;15.80;;;;;;;5.79;100.00;100782.03;6090976;23;20061;-87
2022/11/28 07:34:30;;;;;;;21.38;16.40;;;;;;;5.70;100.00;100772.63;6088435;23;20093;-83
2022/11/28 07:36:56;;;;;;;21.88;17.02;;;;;;;5.83;100.00;100786.31;6089564;23;20073;-83
2022/11/28 07:39:21;;;;;;;20.60;16.00;;;;;;;5.81;100.00;100787.25;6090320;23;20011;-83
2022/11/28 07:41:46;;;;;;;22.42;17.70;;;;;;;5.83;100.00;100791.59;6089675;23;20022;-85
2022/11/28 07:44:12;;;;;;;23.50;18.27;;;;;;;5.82;100.00;100791.66;6089912;23;20006;-84
2022/11/28 07:46:37;;;;;;;24.75;19.67;;;;;;;5.84;100.00;100795.09;6088292;23;20010;-83
2022/11/28 07:49:03;;;;;;;24.48;19.33;;;;;;;5.85;100.00;100800.34;6087610;23;20002;-85
2022/11/28 07:51:31;;;;;;;24.17;19.23;;;;;;;5.84;100.00;100798.59;6089667;23;20010;-85
2022/11/28 07:53:57;;;;;;;22.60;18.60;;;;;;;5.87;100.00;100806.44;6089848;23;20017;-84
2022/11/28 07:56:25;;;;;;;22.98;19.27;;;;;;;5.89;100.00;100816.94;6090174;23;20094;-83
2022/11/28 07:58:51;;;;;;;23.88;19.55;;;;;;;5.79;100.00;100802.31;6090536;23;20063;-83
2022/11/28 08:01:22;;;;;;;22.80;18.73;;;;;;;5.89;100.00;100815.16;6091593;23;20002;-83
2022/11/28 08:03:48;;;;;;;23.58;18.38;;;;;;;5.88;100.00;100813.44;6092202;23;20006;-83
2022/11/28 08:06:15;;;;;;;24.30;18.95;;;;;;;5.89;100.00;100806.38;6092124;23;20388;-83
2022/11/28 08:08:42;;;;;;;25.60;18.27;;;;;;;5.87;100.00;100806.44;6093499;23;19998;-84
2022/11/28 08:11:08;;;;;;;24.55;19.88;;;;;;;5.89;100.00;100806.38;6090262;23;20046;-85
2022/11/28 08:13:36;;;;;;;26.70;19.95;;;;;;;5.95;100.00;100812.38;6085551;23;20520;-85
2022/11/28 08:16:07;;;;;;;27.50;21.33;;;;;;;5.94;100.00;100810.66;6079812;23;20025;-83
2022/11/28 08:18:34;;;;;;;26.13;19.80;;;;;;;5.93;100.00;100808.91;6068989;23;20057;-86
2022/11/28 08:21:05;;;;;;;26.67;20.02;;;;;;;5.98;100.00;100820.22;6064973;23;20081;-87
2022/11/28 08:23:33;;;;;;;24.70;19.02;;;;;;;5.96;100.00;100816.72;6090647;23;20010;-87
2022/11/28 08:26:02;;;;;;;22.52;18.85;;;;;;;6.03;100.00;100816.56;6094142;23;20006;-88
2022/11/28 08:28:28;;;;;;;24.02;20.17;;;;;;;5.91;100.00;100802.78;6087363;23;20002;-89
2022/11/28 08:30:53;;;;;;;24.85;20.35;;;;;;;6.06;100.00;100821.72;6119627;23;20017;-90
2022/11/28 08:33:18;;;;;;;29.42;21.70;;;;;;;6.05;100.00;100812.06;6116596;23;20076;-88
2022/11/28 08:35:44;;;;;;;26.45;20.35;;;;;;;6.05;100.00;100815.56;6116380;23;20005;-87
2022/11/28 08:38:09;;;;;;;27.33;21.10;;;;;;;6.09;100.00;100821.63;6114596;23;20045;-87
2022/11/28 08:40:34;;;;;;;26.58;20.77;;;;;;;6.07;100.00;100820.81;6116638;23;20430;-88
2022/11/28 08:43:00;;;;;;;27.45;20.92;;;;;;;5.97;100.00;100807.88;6112052;23;20006;-88
2022/11/28 08:45:25;;;;;;;27.02;21.00;;;;;;;6.05;100.00;100822.63;6117665;23;20011;-88
2022/11/28 08:47:50;;;;;;;28.17;20.73;;;;;;;6.14;100.00;100831.13;6089209;23;20357;-85
2022/11/28 08:50:16;;;;;;;26.48;20.67;;;;;;;6.14;100.00;100833.75;6114173;23;19998;-87
2022/11/28 08:52:41;;;;;;;27.92;20.70;;;;;;;6.10;100.00;100825.97;6116470;23;20420;-87
2022/11/28 08:55:07;;;;;;;29.60;21.95;;;;;;;6.17;100.00;100835.44;6090570;23;20439;-87
2022/11/28 08:57:32;;;;;;;32.25;22.42;;;;;;;6.10;100.00;100823.34;6116339;23;20006;-87
2022/11/28 08:59:57;;;;;;;30.83;21.70;;;;;;;6.17;100.00;100831.03;6113000;23;20045;-85
2022/11/28 09:02:22;;;;;;;32.17;22.08;;;;;;;6.11;100.00;100814.53;6114628;23;20972;-85
2022/11/28 09:04:48;;;;;;;31.77;21.83;;;;;;;6.20;100.00;100833.56;6114403;23;20010;-86
2022/11/28 09:07:13;;;;;;;34.90;23.65;;;;;;;6.23;100.00;100835.25;6115684;23;20010;-84
2022/11/28 09:09:38;;;;;;;35.22;23.08;;;;;;;6.21;100.00;100837.09;6085776;23;20036;-86
2022/11/28 09:12:04;;;;;;;36.25;22.83;;;;;;;6.16;100.00;100820.53;6116386;23;20049;-86
2022/11/28 09:14:29;;;;;;;31.65;22.30;;;;;;;6.28;100.00;100837.75;6112838;23;20009;-86
2022/11/28 09:16:54;;;;;;;33.40;22.25;;;;;;;6.30;100.00;100846.47;6114403;23;20420;-85
2022/11/28 09:19:20;;;;;;;33.67;22.35;;;;;;;6.31;100.00;100838.53;6087503;23;20022;-87
2022/11/28 09:21:45;;;;;;;32.50;22.05;;;;;;;6.33;100.00;100852.53;6091288;23;20085;-86
2022/11/28 09:24:12;;;;;;;37.30;22.38;;;;;;;6.28;100.00;100841.25;6115125;23;20448;-86
2022/11/28 09:26:38;;;;;;;33.72;21.75;;;;;;;6.28;100.00;100832.47;6115812;23;20034;-85
2022/11/28 09:29:03;;;;;;;40.05;22.60;;;;;;;6.32;100.00;100832.31;6117366;23;20088;-85
2022/11/28 09:31:28;;;;;;;34.53;22.85;;;;;;;6.41;100.00;100847.00;6118809;23;20018;-85
2022/11/28 09:33:54;;;;;;;34.47;21.02;;;;;;;6.38;100.00;100837.38;6116778;23;20491;-86
2022/11/28 09:36:21;;;;;;;33.22;20.92;;;;;;;6.40;100.00;100842.63;6118562;23;20081;-85
2022/11/28 09:38:47;;;;;;;31.55;20.98;;;;;;;6.45;100.00;100846.84;6118586;23;20570;-86
2022/11/28 09:41:28;;;;;;;30.20;20.65;;;;;;;6.37;100.00;100827.72;6117751;23;20068;-86
2022/11/28 09:44:13;;;;;;;35.05;20.05;;;;;;;6.52;100.00;100849.25;6091523;23;20499;-86
2022/11/28 09:46:39;;;;;;;34.45;21.10;;;;;;;6.51;100.00;100832.53;6117721;23;20020;-86
2022/11/28 09:49:20;;;;;;;36.00;21.75;;;;;;;6.61;100.00;100847.19;6117106;23;20037;-85
2022/11/28 09:51:58;;;;;;;34.88;21.80;;;;;;;6.64;100.00;100847.06;6118197;23;20014;-86
2022/11/28 09:54:32;;;;;;;36.30;21.58;;;;;;;6.65;100.00;100851.47;6119073;23;20010;-86
2022/11/28 09:56:59;;;;;;;33.88;21.90;;;;;;;6.60;100.00;100839.28;6116396;23;20040;-86
2022/11/28 09:59:29;;;;;;;33.10;21.05;;;;;;;6.66;100.00;100853.19;6113724;23;20331;-83
2022/11/28 10:02:18;;;;;;;39.47;21.98;;;;;;;6.69;100.00;100855.72;6114241;23;20017;-85
2022/11/28 10:04:56;;;;;;;38.03;22.85;;;;;;;6.73;100.00;100860.00;6115562;23;20376;-84
2022/11/28 10:07:43;;;;;;;33.47;21.88;;;;;;;6.76;100.00;100859.00;6115962;23;20049;-83
2022/11/28 10:10:21;;;;;;;38.15;23.55;;;;;;;6.77;100.00;100852.78;6115867;23;20021;-85
2022/11/28 10:13:04;;;;;;;34.22;22.73;;;;;;;6.78;100.00;100857.19;6117444;23;20006;-86
2022/11/28 10:15:43;;;;;;;31.95;22.02;;;;;;;6.80;100.00;100855.34;6120856;23;20401;-85
2022/11/28 10:18:27;;;;;;;36.90;23.40;;;;;;;6.82;100.00;100855.31;6121427;23;20013;-88
2022/11/28 10:20:58;;;;;;;42.53;23.90;;;;;;;6.78;100.00;100849.25;6123724;23;20016;-86
2022/11/28 10:23:33;;;;;;;34.40;22.52;;;;;;;6.88;100.00;100855.94;6117943;23;20020;-87
2022/11/28 10:26:10;;;;;;;37.38;22.90;;;;;;;6.82;100.00;100842.94;6119731;23;20013;-85
2022/11/28 10:28:42;;;;;;;41.35;23.85;;;;;;;6.93;100.00;100856.63;6118911;23;20116;-86
2022/11/28 10:31:42;;;;;;;37.10;23.02;;;;;;;6.95;100.00;100857.44;6125361;23;20006;-87
2022/11/28 10:34:16;;;;;;;36.20;22.25;;;;;;;6.95;100.00;100862.75;6063589;23;20013;-86
2022/11/28 10:36:57;;;;;;;35.85;23.35;;;;;;;6.90;100.00;100848.81;6121652;23;20006;-87
2022/11/28 10:39:24;;;;;;;35.38;22.20;;;;;;;6.87;100.00;100843.63;6119495;23;20002;-88
2022/11/28 10:42:13;;;;;;;35.17;22.50;;;;;;;6.89;100.00;100841.78;6120483;23;20022;-88
2022/11/28 10:44:57;;;;;;;40.53;24.60;;;;;;;6.99;100.00;100852.91;6121846;23;20010;-86
2022/11/28 10:47:48;;;;;;;;;;;;;;;7.03;100.00;100862.47;6121497;23;20715;-87
2022/11/28 10:50:16;;;;;;;40.35;23.90;;;;;;;7.00;100.00;100859.94;6120908;23;19979;-86
2022/11/28 10:53:08;;;;;;;40.28;23.77;;;;;;;7.01;100.00;100869.59;6091050;23;20006;-85
2022/11/28 10:55:43;;;;;;;37.45;23.77;;;;;;;7.04;100.00;100868.63;6032611;23;20015;-84
2022/11/28 10:58:21;;;;;;;38.78;23.83;;;;;;;6.91;100.00;100839.94;6052573;23;20065;-86
2022/11/28 11:00:48;;;;;;;44.97;25.67;;;;;;;7.05;100.00;100857.13;6055011;23;20049;-86
2022/11/28 11:03:17;;;;;;;42.63;24.55;;;;;;;7.05;100.00;100865.06;6054642;23;20011;-87
2022/11/28 11:05:42;;;;;;;46.90;25.70;;;;;;;7.02;100.00;100857.22;6055712;23;20015;-88
2022/11/28 11:08:07;;;;;;;47.00;26.98;;;;;;;7.05;100.00;100873.00;6054505;23;20018;-87
2022/11/28 11:10:45;;;;;;;49.78;27.60;;;;;;;7.04;100.00;100874.78;6056842;23;20047;-89
2022/11/28 11:13:15;;;;;;;49.15;27.42;;;;;;;7.01;100.00;100872.22;6057224;23;20512;-87
2022/11/28 11:15:41;;;;;;;51.75;28.80;;;;;;;6.92;100.00;100843.47;6055891;23;20022;-87
2022/11/28 11:18:21;;;;;;;54.67;29.55;;;;;;;7.08;100.00;100868.47;6031215;23;20876;-87
2022/11/28 11:20:46;;;;;;;53.15;29.05;;;;;;;7.07;100.00;100857.94;6056052;23;20015;-87
2022/11/28 11:23:16;;;;;;;55.00;29.15;;;;;;;7.09;100.00;100859.59;6057260;23;20083;-87
2022/11/28 11:25:48;;;;;;;55.50;30.33;;;;;;;7.11;100.00;100867.50;6032189;23;20027;-88
2022/11/28 11:28:38;;;;;;;53.88;30.23;;;;;;;7.15;100.00;100864.69;6055626;23;20516;-87
2022/11/28 11:31:12;;;;;;;59.22;30.15;;;;;;;7.16;100.00;100866.41;6055833;23;20011;-84